Urbana, Indiana
Current Conditions -  °F | °C
As of 3:15 PM on Friday 31 Oct 2014 (Local Time) from KRCR Reporting Station
Light Rain Light Rain  
Wind Chill: 32°   Ceiling: 1200
Heat Index: 41°   Visibility: 10mi
Dew Point: 37°   Wind: 17mph
Humidity: 87%   Direction: 360°N
Pressure: 29.96"   Gusts: 33mph
Location:  40.9°N, 85.79°W
Report Text: KRCR 311915Z AUTO 36015G29KT 10SM -RA BKN012 BKN020 BKN030 05/03 A2996 RMK AO2
Loading
Personal Weather Stations






























Interactive Weather Map
Tropical Storm Tracking
New forecast layout! Learn more

10-Day Weather Forecast

Advertisements
Track Severe Weather on mobile